Time;durP1;ratioP1;P1;durP2;ratioP2;P2;SDS_P1;SDS_P2;PMS_P1;PMS_P2;Temp;Humidity;BMP_temperature;BMP_pressure;BME280_temperature;BME280_humidity;BME280_pressure;Samples;Min_cycle;Max_cycle;Signal;HPM_P1;HPM_P2
2023/12/07 00:04:55;;;;;;;99.53;53.90;;;2.70;99.90;;;;;;10051207;29;20630;-78
2023/12/07 00:09:58;;;;;;;95.23;47.37;;;2.80;99.90;;;;;;10053659;29;20303;-79
2023/12/07 00:15:00;;;;;;;70.43;36.50;;;2.90;99.90;;;;;;10090754;29;20272;-78
2023/12/07 00:20:06;;;;;;;62.23;34.37;;;3.10;99.90;;;;;;10094333;29;20238;-79
2023/12/07 00:25:09;;;;;;;74.17;35.53;;;3.20;99.90;;;;;;10058078;29;20240;-79
2023/12/07 00:30:12;;;;;;;90.13;45.30;;;3.40;99.90;;;;;;10094372;29;20266;-79
2023/12/07 00:35:16;;;;;;;88.70;45.83;;;3.30;99.90;;;;;;10085936;29;20257;-79
2023/12/07 00:40:18;;;;;;;79.73;42.17;;;3.30;99.90;;;;;;10094838;29;20260;-79
2023/12/07 00:45:21;;;;;;;86.53;47.30;;;2.90;99.90;;;;;;10093220;29;20768;-79
2023/12/07 00:50:24;;;;;;;87.27;42.87;;;3.00;99.90;;;;;;10094454;29;20239;-79
2023/12/07 00:55:26;;;;;;;74.27;39.93;;;2.60;99.90;;;;;;10095740;29;20317;-79
2023/12/07 01:00:28;;;;;;;108.43;50.63;;;2.70;99.90;;;;;;10095202;29;20276;-79
2023/12/07 01:05:31;;;;;;;97.77;47.87;;;2.80;99.90;;;;;;10095522;29;20770;-79
2023/12/07 01:10:33;;;;;;;70.57;36.67;;;2.70;99.90;;;;;;10095125;29;20256;-78
2023/12/07 01:15:36;;;;;;;67.20;35.30;;;3.00;99.90;;;;;;10094089;29;20325;-79
2023/12/07 01:20:38;;;;;;;103.67;50.23;;;3.30;99.90;;;;;;10094589;29;20303;-79
2023/12/07 01:25:41;;;;;;;100.43;49.07;;;3.00;99.90;;;;;;10092290;29;20386;-78
2023/12/07 01:30:44;;;;;;;93.43;48.60;;;2.70;99.90;;;;;;10094741;29;20243;-79
2023/12/07 01:35:46;;;;;;;94.20;50.17;;;2.80;99.90;;;;;;10091048;29;20667;-79
2023/12/07 01:40:49;;;;;;;89.70;43.80;;;2.50;99.90;;;;;;10062229;29;20226;-78
2023/12/07 01:45:54;;;;;;;96.43;48.37;;;2.20;99.90;;;;;;10091454;29;20286;-79
2023/12/07 01:50:58;;;;;;;92.57;46.17;;;2.80;99.90;;;;;;10054729;29;20223;-78
2023/12/07 01:56:00;;;;;;;90.43;43.03;;;2.70;99.90;;;;;;10055779;29;20314;-78
2023/12/07 02:01:04;;;;;;;74.07;39.13;;;2.60;99.90;;;;;;10066669;29;20276;-79
2023/12/07 02:06:08;;;;;;;95.73;48.90;;;2.90;99.90;;;;;;10090480;29;20245;-78
2023/12/07 02:11:11;;;;;;;92.70;46.43;;;2.60;99.90;;;;;;10092857;29;20305;-79
2023/12/07 02:16:43;;;;;;;72.93;38.30;;;2.70;99.90;;;;;;10074161;29;20744;-78
2023/12/07 02:21:54;;;;;;;69.77;36.37;;;2.80;99.90;;;;;;10050992;29;20302;-79
2023/12/07 02:26:56;;;;;;;73.30;38.50;;;2.70;99.90;;;;;;10066500;29;20299;-78
2023/12/07 02:31:58;;;;;;;78.67;42.07;;;2.60;99.90;;;;;;10075772;29;20250;-78
2023/12/07 02:37:03;;;;;;;89.03;44.83;;;2.60;99.90;;;;;;10053034;29;20295;-78
2023/12/07 02:42:07;;;;;;;90.80;47.80;;;2.70;99.90;;;;;;10052156;29;20234;-78
2023/12/07 02:47:09;;;;;;;86.13;43.40;;;2.50;99.90;;;;;;10053002;29;20270;-78
2023/12/07 02:52:12;;;;;;;83.03;41.60;;;2.00;99.90;;;;;;10051970;29;20229;-78
2023/12/07 02:57:14;;;;;;;63.97;33.63;;;2.10;99.90;;;;;;10052835;29;20262;-78
2023/12/07 03:02:17;;;;;;;62.50;34.20;;;1.80;99.90;;;;;;10051303;29;20258;-79
2023/12/07 03:07:19;;;;;;;79.83;41.07;;;2.00;99.90;;;;;;10052438;29;20651;-78
2023/12/07 03:12:23;;;;;;;79.90;42.00;;;1.90;99.90;;;;;;10052492;29;20234;-78
2023/12/07 03:17:25;;;;;;;69.80;35.63;;;2.10;99.90;;;;;;10068335;29;20260;-79
2023/12/07 03:22:28;;;;;;;79.33;42.33;;;2.20;99.90;;;;;;10090470;29;20236;-79
2023/12/07 03:27:32;;;;;;;84.30;40.10;;;2.00;99.90;;;;;;10087962;29;20651;-79
2023/12/07 03:32:34;;;;;;;81.23;42.13;;;1.80;99.90;;;;;;10070514;29;20695;-79
2023/12/07 03:37:37;;;;;;;89.53;45.00;;;2.10;99.90;;;;;;10081880;29;20322;-79
2023/12/07 03:42:39;;;;;;;82.33;44.27;;;2.30;99.90;;;;;;10070384;29;20295;-79
2023/12/07 03:47:57;;;;;;;88.33;44.40;;;2.40;99.90;;;;;;10088417;29;20240;-79
2023/12/07 03:53:00;;;;;;;58.73;31.50;;;2.20;99.90;;;;;;10095910;29;20242;-79
2023/12/07 03:58:03;;;;;;;64.13;33.10;;;2.40;99.90;;;;;;10096144;29;20328;-79
2023/12/07 04:03:05;;;;;;;66.90;36.47;;;2.30;99.90;;;;;;10095991;29;20257;-78
2023/12/07 04:08:08;;;;;;;79.97;40.50;;;2.60;99.90;;;;;;10097021;29;20245;-79
2023/12/07 04:13:10;;;;;;;88.13;46.30;;;2.60;99.90;;;;;;10096245;29;20237;-79
2023/12/07 04:18:13;;;;;;;86.17;42.47;;;2.40;99.90;;;;;;10093598;29;20271;-79
2023/12/07 04:23:15;;;;;;;85.20;43.30;;;2.20;99.90;;;;;;10058210;29;20258;-78
2023/12/07 04:28:18;;;;;;;87.13;43.40;;;1.80;99.90;;;;;;10076647;29;20270;-79
2023/12/07 04:33:20;;;;;;;80.57;43.07;;;1.60;99.90;;;;;;10068635;29;20250;-78
2023/12/07 04:38:23;;;;;;;80.87;42.33;;;1.80;99.90;;;;;;10072771;29;21027;-78
2023/12/07 04:43:25;;;;;;;89.97;45.60;;;1.50;99.90;;;;;;10091670;29;20665;-78
2023/12/07 04:48:28;;;;;;;83.90;44.33;;;1.30;99.90;;;;;;10095118;29;20331;-79
2023/12/07 04:53:30;;;;;;;87.90;45.70;;;1.40;99.90;;;;;;10095279;29;20262;-79
2023/12/07 04:58:33;;;;;;;99.43;47.97;;;1.50;99.90;;;;;;10069169;29;20254;-78
2023/12/07 05:03:35;;;;;;;84.87;43.60;;;1.20;99.90;;;;;;10068418;29;20241;-78
2023/12/07 05:08:39;;;;;;;93.53;46.97;;;1.30;99.90;;;;;;10056714;29;20301;-79
2023/12/07 05:13:42;;;;;;;94.07;49.10;;;1.50;99.90;;;;;;10056488;29;20278;-79
2023/12/07 05:18:45;;;;;;;96.77;45.53;;;1.10;99.90;;;;;;10056003;29;20714;-78
2023/12/07 05:23:48;;;;;;;92.23;49.10;;;1.20;99.90;;;;;;10055965;29;20227;-79
2023/12/07 05:28:51;;;;;;;92.33;48.07;;;0.80;99.90;;;;;;10055401;29;20277;-79
2023/12/07 05:33:55;;;;;;;95.27;48.93;;;0.40;99.90;;;;;;10080762;29;20252;-79
2023/12/07 05:38:59;;;;;;;99.07;47.50;;;0.30;99.90;;;;;;10065415;29;20257;-79
2023/12/07 05:44:03;;;;;;;95.07;44.23;;;0.30;99.90;;;;;;10058574;29;20237;-79
2023/12/07 05:49:06;;;;;;;83.40;41.00;;;0.40;99.90;;;;;;10091103;29;20318;-79
2023/12/07 05:54:08;;;;;;;102.07;49.00;;;0.50;99.90;;;;;;10103568;29;20312;-78
2023/12/07 05:59:11;;;;;;;99.47;47.03;;;0.50;99.90;;;;;;10082908;29;20358;-79
2023/12/07 06:04:15;;;;;;;99.27;47.53;;;0.30;99.90;;;;;;10053930;29;20301;-79
2023/12/07 06:09:18;;;;;;;87.90;43.70;;;0.50;99.90;;;;;;10052910;29;20253;-78
2023/12/07 06:14:22;;;;;;;100.33;46.53;;;0.80;99.90;;;;;;10087604;29;20237;-79
2023/12/07 06:19:25;;;;;;;115.13;55.53;;;0.80;99.90;;;;;;10091558;29;20347;-79
2023/12/07 06:24:28;;;;;;;124.97;59.90;;;0.50;99.90;;;;;;10091780;29;20229;-79
2023/12/07 06:29:30;;;;;;;144.00;70.23;;;0.80;99.90;;;;;;10077993;29;20298;-79
2023/12/07 06:34:33;;;;;;;174.33;89.97;;;1.20;99.90;;;;;;10051632;29;20258;-79
2023/12/07 06:39:36;;;;;;;112.43;58.57;;;1.10;99.90;;;;;;10061169;29;20307;-79
2023/12/07 06:44:38;;;;;;;103.43;54.13;;;1.10;99.90;;;;;;10084845;29;20712;-79
2023/12/07 06:49:41;;;;;;;69.67;39.20;;;1.30;99.90;;;;;;10095563;29;20245;-79
2023/12/07 06:54:54;;;;;;;108.27;54.70;;;1.40;99.90;;;;;;10092014;29;20238;-79
2023/12/07 06:59:57;;;;;;;114.30;54.87;;;1.20;99.90;;;;;;10083425;29;20276;-78
2023/12/07 07:04:59;;;;;;;112.63;52.67;;;0.90;99.90;;;;;;10082684;29;20261;-78
2023/12/07 07:10:02;;;;;;;107.43;52.83;;;0.70;99.90;;;;;;10070008;29;20834;-78
2023/12/07 07:15:08;;;;;;;103.40;48.33;;;0.60;99.90;;;;;;10080413;29;20687;-78
2023/12/07 07:20:11;;;;;;;99.77;46.57;;;0.80;99.90;;;;;;10093040;29;20251;-79
2023/12/07 07:25:15;;;;;;;93.53;45.87;;;0.90;99.90;;;;;;10084251;29;20233;-78
2023/12/07 07:30:18;;;;;;;87.60;44.57;;;0.90;99.90;;;;;;10076432;29;20653;-78
2023/12/07 07:35:21;;;;;;;101.43;48.03;;;1.00;99.90;;;;;;10109944;29;20245;-78
2023/12/07 07:40:24;;;;;;;83.80;42.10;;;1.30;99.90;;;;;;10127097;29;20311;-78
2023/12/07 07:45:27;;;;;;;93.90;44.97;;;1.10;99.90;;;;;;10099084;29;20288;-78
2023/12/07 07:50:29;;;;;;;93.60;45.50;;;1.70;99.90;;;;;;10088727;29;20308;-78
2023/12/07 07:55:32;;;;;;;98.87;46.10;;;1.90;99.90;;;;;;10080643;29;20685;-78
2023/12/07 08:00:34;;;;;;;98.50;46.83;;;2.10;99.90;;;;;;10071853;29;20317;-78
2023/12/07 08:05:37;;;;;;;76.40;36.90;;;2.20;99.90;;;;;;10049638;29;20238;-78
2023/12/07 08:10:39;;;;;;;100.63;46.80;;;2.30;99.90;;;;;;10064063;29;20226;-77
2023/12/07 08:15:57;;;;;;;88.63;43.93;;;2.30;99.90;;;;;;10056888;29;20769;-78
2023/12/07 08:21:00;;;;;;;87.83;45.53;;;2.20;99.90;;;;;;10080340;29;20256;-78
2023/12/07 08:26:03;;;;;;;76.20;35.97;;;2.30;99.90;;;;;;10056573;29;20307;-78
2023/12/07 08:31:06;;;;;;;75.67;36.97;;;2.30;99.90;;;;;;10082675;29;20645;-77
2023/12/07 08:36:10;;;;;;;38.00;22.27;;;2.20;99.90;;;;;;10067985;29;20996;-78
2023/12/07 08:41:12;;;;;;;72.60;36.90;;;2.60;99.90;;;;;;10072522;29;20319;-78
2023/12/07 08:46:16;;;;;;;93.33;42.40;;;3.10;99.90;;;;;;10074335;29;20739;-77
2023/12/07 08:51:19;;;;;;;84.70;41.30;;;2.80;99.90;;;;;;10075567;29;20279;-78
2023/12/07 08:56:21;;;;;;;66.00;34.40;;;2.50;99.90;;;;;;10056263;29;20755;-78
2023/12/07 09:01:24;;;;;;;95.63;46.43;;;2.50;99.90;;;;;;10081644;29;20691;-77
2023/12/07 09:06:36;;;;;;;73.53;36.77;;;2.60;99.90;;;;;;10088044;29;20238;-78
2023/12/07 09:11:39;;;;;;;93.10;43.63;;;3.00;99.90;;;;;;10067128;29;20231;-78
2023/12/07 09:16:46;;;;;;;96.00;47.63;;;2.60;99.90;;;;;;10090325;29;20237;-78
2023/12/07 09:21:48;;;;;;;219.63;104.27;;;2.80;99.90;;;;;;10092978;29;20289;-78
2023/12/07 09:26:50;;;;;;;303.00;151.13;;;2.60;99.90;;;;;;10089539;29;20321;-78
2023/12/07 09:31:53;;;;;;;159.77;75.70;;;2.60;99.90;;;;;;10067867;29;20242;-78
2023/12/07 09:37:11;;;;;;;126.83;59.87;;;3.00;99.90;;;;;;10093042;29;20787;-78
2023/12/07 09:42:14;;;;;;;102.23;49.43;;;2.70;99.90;;;;;;10090944;29;20268;-79
2023/12/07 09:47:22;;;;;;;91.00;44.77;;;2.30;99.90;;;;;;10076091;29;20770;-78
2023/12/07 09:52:36;;;;;;;192.97;106.40;;;2.20;99.90;;;;;;10092704;29;20316;-78
2023/12/07 09:57:39;;;;;;;158.07;94.13;;;2.30;99.90;;;;;;10091433;29;20344;-78
2023/12/07 10:02:42;;;;;;;121.20;61.00;;;2.40;99.90;;;;;;10074442;29;20763;-78
2023/12/07 10:07:50;;;;;;;103.63;56.70;;;2.70;99.90;;;;;;10096828;29;20231;-78
2023/12/07 10:12:59;;;;;;;91.73;45.10;;;2.70;99.90;;;;;;10091911;29;20240;-78
2023/12/07 10:18:01;;;;;;;106.47;49.40;;;2.70;99.90;;;;;;10089844;29;20301;-78
2023/12/07 10:23:09;;;;;;;88.30;45.27;;;3.00;99.90;;;;;;10059840;29;20268;-78
2023/12/07 10:28:12;;;;;;;93.20;48.10;;;2.60;99.90;;;;;;10068090;29;20671;-78
2023/12/07 10:33:15;;;;;;;96.87;47.07;;;2.50;99.90;;;;;;10052595;29;20308;-79
2023/12/07 10:38:19;;;;;;;96.97;48.40;;;2.50;99.90;;;;;;10062964;29;20293;-78
2023/12/07 10:43:22;;;;;;;89.87;43.67;;;2.40;99.90;;;;;;10067047;29;20719;-78
2023/12/07 10:48:26;;;;;;;100.13;51.40;;;2.70;99.90;;;;;;10076789;29;20314;-78
2023/12/07 10:53:40;;;;;;;91.63;48.00;;;2.60;99.90;;;;;;10063060;29;20301;-78
2023/12/07 10:58:45;;;;;;;113.27;52.87;;;2.30;99.90;;;;;;10076332;29;20333;-79
2023/12/07 11:03:50;;;;;;;104.00;52.50;;;3.40;99.90;;;;;;10082008;29;20241;-79
2023/12/07 11:09:00;;;;;;;105.73;54.67;;;2.80;99.90;;;;;;10090162;29;20244;-79
2023/12/07 11:14:07;;;;;;;110.13;54.80;;;2.40;99.90;;;;;;10071928;29;20304;-78
2023/12/07 11:19:42;;;;;;;35.37;16.47;;;2.10;99.90;;;;;;10070825;29;20260;-78
2023/12/07 11:24:58;;;;;;;105.40;54.10;;;2.40;99.90;;;;;;10062203;29;20277;-78
2023/12/07 11:30:01;;;;;;;81.83;38.70;;;2.10;99.90;;;;;;10051133;29;20286;-79
2023/12/07 11:35:04;;;;;;;110.50;53.87;;;2.40;99.90;;;;;;10072246;29;20237;-79
2023/12/07 11:40:07;;;;;;;119.77;57.57;;;2.70;99.90;;;;;;10075739;29;20260;-79
2023/12/07 11:45:11;;;;;;;105.63;51.97;;;2.70;99.90;;;;;;10051810;29;20309;-78
2023/12/07 11:50:13;;;;;;;113.10;56.30;;;2.50;99.90;;;;;;10089022;29;20320;-79
2023/12/07 11:55:16;;;;;;;119.10;60.53;;;2.60;99.90;;;;;;10063433;29;20700;-79
2023/12/07 12:00:20;;;;;;;117.50;56.47;;;2.70;99.90;;;;;;10065341;29;20309;-78
2023/12/07 12:05:22;;;;;;;112.57;56.20;;;2.70;99.90;;;;;;10061436;29;20241;-79
2023/12/07 12:10:25;;;;;;;112.87;52.77;;;2.70;99.90;;;;;;10089672;29;20262;-79
2023/12/07 12:15:28;;;;;;;84.90;41.53;;;2.70;99.90;;;;;;10071535;29;20267;-79
2023/12/07 12:20:32;;;;;;;110.63;57.17;;;3.10;99.90;;;;;;10067500;29;20249;-79
2023/12/07 12:25:35;;;;;;;119.43;58.13;;;3.20;99.90;;;;;;10082431;29;20233;-79
2023/12/07 12:30:38;;;;;;;118.20;57.93;;;2.90;99.90;;;;;;10095407;29;20305;-78
2023/12/07 12:35:41;;;;;;;108.73;51.67;;;2.50;99.90;;;;;;10093178;29;20296;-79
2023/12/07 12:40:44;;;;;;;117.17;57.13;;;2.50;99.90;;;;;;10093113;29;20260;-79
2023/12/07 12:45:47;;;;;;;117.63;58.83;;;2.60;99.90;;;;;;10088011;29;20233;-78
2023/12/07 12:51:13;;;;;;;105.20;53.30;;;2.30;99.90;;;;;;10055446;29;20778;-79
2023/12/07 12:56:16;;;;;;;119.10;60.10;;;2.20;99.90;;;;;;10056940;29;20302;-79
2023/12/07 13:01:20;;;;;;;113.80;57.00;;;2.30;99.90;;;;;;10080508;29;20260;-79
2023/12/07 13:06:24;;;;;;;107.60;52.60;;;2.20;99.90;;;;;;10056299;29;20286;-79
2023/12/07 13:11:27;;;;;;;121.83;60.57;;;2.10;99.90;;;;;;10067868;29;20232;-79
2023/12/07 13:16:30;;;;;;;138.37;64.03;;;2.00;99.90;;;;;;10091466;29;20236;-78
2023/12/07 13:21:32;;;;;;;123.80;58.93;;;2.00;99.90;;;;;;10053548;29;20269;-79
2023/12/07 13:26:35;;;;;;;128.47;61.83;;;2.30;99.90;;;;;;10081437;29;20260;-79
2023/12/07 13:31:38;;;;;;;120.83;61.03;;;2.50;99.90;;;;;;10067295;29;20234;-78
2023/12/07 13:36:40;;;;;;;134.93;66.93;;;2.20;99.90;;;;;;10053512;29;20719;-78
2023/12/07 13:41:43;;;;;;;137.00;63.37;;;2.20;99.90;;;;;;10054659;29;20667;-78
2023/12/07 13:46:45;;;;;;;132.83;64.17;;;2.10;99.90;;;;;;10063643;29;20289;-79
2023/12/07 13:51:50;;;;;;;132.90;62.43;;;2.00;99.90;;;;;;10064102;29;20241;-78
2023/12/07 13:56:53;;;;;;;134.20;65.33;;;2.00;99.90;;;;;;10060539;29;20289;-79
2023/12/07 14:01:55;;;;;;;140.70;65.00;;;2.20;99.90;;;;;;10089228;29;20272;-79
2023/12/07 14:07:15;;;;;;;127.37;61.47;;;2.20;99.90;;;;;;10090522;29;20248;-79
2023/12/07 14:12:18;;;;;;;139.87;65.97;;;2.20;99.90;;;;;;10091857;29;20248;-79
2023/12/07 14:17:22;;;;;;;114.27;60.37;;;2.50;99.90;;;;;;10091774;29;20722;-79
2023/12/07 14:22:36;;;;;;;133.00;67.60;;;2.50;99.90;;;;;;10083240;29;20293;-79
2023/12/07 14:27:39;;;;;;;124.17;61.93;;;2.40;99.90;;;;;;10052490;29;20356;-79
2023/12/07 14:32:43;;;;;;;114.27;55.07;;;2.30;99.90;;;;;;10052705;29;20245;-78
2023/12/07 14:37:46;;;;;;;125.70;61.87;;;2.30;99.90;;;;;;10052331;29;20274;-79
2023/12/07 14:42:48;;;;;;;126.80;60.30;;;2.10;99.90;;;;;;10084814;29;20241;-78
2023/12/07 14:47:51;;;;;;;132.20;62.80;;;1.80;99.90;;;;;;10075531;29;20270;-79
2023/12/07 14:52:54;;;;;;;133.83;63.20;;;1.80;99.90;;;;;;10078988;29;20233;-78
2023/12/07 14:57:56;;;;;;;126.90;63.00;;;1.40;99.90;;;;;;10071722;29;20274;-78
2023/12/07 15:02:59;;;;;;;137.77;63.33;;;1.30;99.90;;;;;;10064431;29;20284;-77
2023/12/07 15:08:03;;;;;;;122.00;59.97;;;1.10;99.90;;;;;;10083771;29;20292;-78
2023/12/07 15:13:05;;;;;;;105.73;47.53;;;1.10;99.90;;;;;;10066719;29;20257;-78
2023/12/07 15:18:08;;;;;;;121.57;62.90;;;3.10;99.90;;;;;;10074742;29;20273;-79
2023/12/07 15:23:11;;;;;;;118.47;58.03;;;2.30;99.90;;;;;;10085302;29;20232;-78
2023/12/07 15:28:14;;;;;;;125.27;59.93;;;2.00;99.90;;;;;;10090129;29;20268;-78
2023/12/07 15:33:17;;;;;;;124.30;62.53;;;1.80;99.90;;;;;;10090016;29;20244;-79
2023/12/07 15:38:20;;;;;;;122.73;60.37;;;1.80;99.90;;;;;;10088496;29;20261;-78
2023/12/07 15:43:23;;;;;;;138.23;63.73;;;1.40;99.90;;;;;;10059065;29;20226;-78
2023/12/07 15:48:26;;;;;;;113.47;56.53;;;1.50;99.90;;;;;;10067176;29;20241;-78
2023/12/07 15:53:29;;;;;;;122.60;59.93;;;1.50;99.90;;;;;;10059734;29;20665;-78
2023/12/07 15:58:31;;;;;;;130.60;62.60;;;1.70;99.90;;;;;;10069373;29;20261;-78
2023/12/07 16:03:35;;;;;;;116.13;57.53;;;1.50;99.90;;;;;;10082659;29;20229;-78
2023/12/07 16:08:38;;;;;;;122.30;58.50;;;1.50;99.90;;;;;;10057274;29;20249;-78
2023/12/07 16:13:40;;;;;;;116.50;59.93;;;1.80;99.90;;;;;;10084664;29;20224;-78
2023/12/07 16:18:43;;;;;;;127.80;61.57;;;1.80;99.90;;;;;;10091383;29;20786;-78
2023/12/07 16:23:46;;;;;;;127.37;64.30;;;1.60;99.90;;;;;;10096241;29;20707;-78
2023/12/07 16:28:49;;;;;;;116.93;60.70;;;1.70;99.90;;;;;;10063067;29;20337;-78
2023/12/07 16:33:52;;;;;;;85.77;40.97;;;1.70;99.90;;;;;;10063955;29;20225;-80
2023/12/07 16:39:03;;;;;;;124.20;58.17;;;2.40;99.90;;;;;;10083634;29;20913;-80
2023/12/07 16:44:06;;;;;;;115.60;56.53;;;2.80;99.90;;;;;;10062761;29;20850;-80
2023/12/07 16:49:08;;;;;;;119.37;59.13;;;2.40;99.90;;;;;;10094233;29;20249;-80
2023/12/07 16:54:11;;;;;;;119.27;57.13;;;2.40;99.90;;;;;;10063654;29;20289;-80
2023/12/07 16:59:14;;;;;;;130.47;66.50;;;2.50;99.90;;;;;;10075937;29;20679;-81
2023/12/07 17:04:18;;;;;;;145.53;69.93;;;2.00;99.90;;;;;;10087052;29;20274;-80
2023/12/07 17:09:20;;;;;;;138.83;68.70;;;1.60;99.90;;;;;;10062244;29;20308;-79
2023/12/07 17:14:23;;;;;;;102.00;52.53;;;1.90;99.90;;;;;;10084574;29;20237;-80
2023/12/07 17:19:26;;;;;;;112.30;53.53;;;2.40;99.90;;;;;;10086658;29;20269;-80
2023/12/07 17:24:36;;;;;;;105.60;54.70;;;2.70;99.90;;;;;;10078638;29;20229;-80
2023/12/07 17:29:39;;;;;;;149.80;76.93;;;3.00;99.90;;;;;;10091685;29;20266;-80
2023/12/07 17:34:44;;;;;;;111.53;55.67;;;2.90;99.90;;;;;;10093689;29;20296;-80
2023/12/07 17:39:46;;;;;;;110.40;56.20;;;2.60;99.90;;;;;;10075925;29;20270;-80
2023/12/07 17:44:49;;;;;;;118.30;58.90;;;3.00;99.90;;;;;;10065144;29;20761;-80
2023/12/07 17:49:53;;;;;;;126.27;59.03;;;2.50;99.90;;;;;;10059528;29;20714;-79
2023/12/07 17:54:55;;;;;;;113.87;57.57;;;2.40;99.90;;;;;;10054095;29;20284;-80
2023/12/07 17:59:58;;;;;;;121.00;63.83;;;2.80;99.90;;;;;;10095419;29;20307;-80
2023/12/07 18:05:01;;;;;;;116.97;58.77;;;2.90;99.90;;;;;;10120481;29;20236;-80
2023/12/07 18:10:05;;;;;;;123.07;62.43;;;2.80;99.90;;;;;;10099451;29;20303;-80
2023/12/07 18:15:09;;;;;;;132.93;64.43;;;2.80;99.90;;;;;;10083741;29;20225;-80
2023/12/07 18:20:12;;;;;;;120.63;58.73;;;2.80;99.90;;;;;;10078326;29;20328;-80
2023/12/07 18:25:15;;;;;;;125.53;65.83;;;3.00;99.90;;;;;;10063329;29;20252;-80
2023/12/07 18:30:17;;;;;;;114.77;61.03;;;3.10;99.90;;;;;;10088479;29;20269;-80
2023/12/07 18:35:20;;;;;;;152.03;74.23;;;3.10;99.90;;;;;;10077613;29;20246;-80
2023/12/07 18:40:22;;;;;;;173.77;83.50;;;3.10;99.90;;;;;;10073474;29;20325;-81
2023/12/07 18:45:25;;;;;;;166.37;84.50;;;3.40;99.90;;;;;;10082679;29;20646;-80
2023/12/07 18:50:27;;;;;;;145.00;73.77;;;3.70;99.90;;;;;;10089154;29;20239;-80
2023/12/07 18:55:30;;;;;;;167.93;86.93;;;3.30;99.90;;;;;;10091424;29;20298;-80
2023/12/07 19:00:33;;;;;;;123.70;63.10;;;3.30;99.90;;;;;;10083564;29;20327;-80
2023/12/07 19:05:35;;;;;;;152.87;72.00;;;2.70;99.90;;;;;;10083690;29;20233;-79
2023/12/07 19:10:38;;;;;;;137.97;67.60;;;2.10;99.90;;;;;;10095168;29;20236;-79
2023/12/07 19:15:41;;;;;;;149.13;73.27;;;2.00;99.90;;;;;;10076397;29;20241;-80
2023/12/07 19:20:43;;;;;;;152.30;76.63;;;1.90;99.90;;;;;;10074383;29;20253;-80
2023/12/07 19:25:46;;;;;;;151.43;78.80;;;1.90;99.90;;;;;;10088540;29;20842;-80
2023/12/07 19:30:49;;;;;;;130.03;63.80;;;1.80;99.90;;;;;;10087465;29;20301;-80
2023/12/07 19:35:51;;;;;;;140.00;68.77;;;1.80;99.90;;;;;;10088203;29;20242;-80
2023/12/07 19:40:54;;;;;;;129.07;62.17;;;1.80;99.90;;;;;;10087881;29;20281;-79
2023/12/07 19:45:57;;;;;;;167.73;84.10;;;1.80;99.90;;;;;;10083360;29;20868;-80
2023/12/07 19:50:59;;;;;;;152.57;75.07;;;1.80;99.90;;;;;;10084859;29;20279;-79
2023/12/07 19:56:02;;;;;;;148.73;73.47;;;1.70;99.90;;;;;;10068129;29;20950;-79
2023/12/07 20:01:06;;;;;;;152.93;71.40;;;1.70;99.90;;;;;;10087745;29;20256;-80
2023/12/07 20:06:09;;;;;;;149.70;74.77;;;1.60;99.90;;;;;;10085524;29;20699;-79
2023/12/07 20:11:17;;;;;;;141.17;69.87;;;1.50;99.90;;;;;;10088276;29;20237;-80
2023/12/07 20:16:20;;;;;;;130.43;65.87;;;1.40;99.90;;;;;;10087944;29;20224;-80
2023/12/07 20:21:23;;;;;;;156.13;73.80;;;1.50;99.90;;;;;;10086434;29;20256;-79
2023/12/07 20:26:25;;;;;;;133.13;65.37;;;1.70;99.90;;;;;;10077696;29;20265;-80
2023/12/07 20:31:28;;;;;;;151.20;74.60;;;1.80;99.90;;;;;;10084809;29;20241;-79
2023/12/07 20:36:31;;;;;;;158.67;75.37;;;1.70;99.90;;;;;;10084301;29;20278;-79
2023/12/07 20:41:33;;;;;;;152.10;77.33;;;1.60;99.90;;;;;;10087776;29;20325;-80
2023/12/07 20:46:35;;;;;;;155.97;75.53;;;1.50;99.90;;;;;;10080984;29;20248;-80
2023/12/07 20:51:38;;;;;;;152.40;73.20;;;1.30;99.90;;;;;;10081781;29;20237;-80
2023/12/07 20:56:41;;;;;;;101.20;50.23;;;1.30;99.90;;;;;;10074408;29;21109;-80
2023/12/07 21:01:45;;;;;;;139.90;69.37;;;1.80;99.90;;;;;;10080400;29;20317;-80
2023/12/07 21:06:48;;;;;;;142.30;62.83;;;2.20;99.90;;;;;;10091181;29;20305;-79
2023/12/07 21:11:50;;;;;;;160.80;76.73;;;2.20;99.90;;;;;;10093912;29;20258;-80
2023/12/07 21:16:53;;;;;;;159.53;79.43;;;2.30;99.90;;;;;;10086124;29;20241;-80
2023/12/07 21:21:55;;;;;;;207.27;101.90;;;2.20;99.90;;;;;;10093796;29;20252;-80
2023/12/07 21:26:58;;;;;;;121.57;58.47;;;2.10;99.90;;;;;;10081175;29;20268;-80
2023/12/07 21:32:00;;;;;;;104.27;50.37;;;2.20;99.90;;;;;;10080051;29;20257;-80
2023/12/07 21:37:03;;;;;;;162.33;75.10;;;2.50;99.90;;;;;;10092968;29;20293;-80
2023/12/07 21:42:05;;;;;;;191.17;86.33;;;2.70;99.90;;;;;;10092668;29;20312;-80
2023/12/07 21:47:09;;;;;;;148.60;72.90;;;2.30;99.90;;;;;;10092618;29;20233;-80
2023/12/07 21:52:13;;;;;;;125.47;60.80;;;2.10;99.90;;;;;;10083555;29;20236;-80
2023/12/07 21:57:15;;;;;;;200.47;93.73;;;2.30;99.90;;;;;;10091118;29;20706;-80
2023/12/07 22:02:18;;;;;;;187.13;88.23;;;2.70;99.90;;;;;;10092630;29;20293;-80
2023/12/07 22:07:22;;;;;;;165.07;78.53;;;2.30;99.90;;;;;;10091951;29;20256;-80
2023/12/07 22:12:24;;;;;;;151.70;72.63;;;1.90;99.90;;;;;;10092399;29;20289;-80
2023/12/07 22:17:27;;;;;;;144.47;71.57;;;1.40;99.90;;;;;;10087116;29;20665;-80
2023/12/07 22:22:30;;;;;;;165.87;78.90;;;1.30;99.90;;;;;;10089761;29;20312;-81
2023/12/07 22:27:33;;;;;;;158.77;78.57;;;1.50;99.90;;;;;;10088829;29;20264;-80
2023/12/07 22:32:35;;;;;;;162.60;76.43;;;1.30;99.90;;;;;;10090699;29;20233;-80
2023/12/07 22:37:38;;;;;;;157.63;78.13;;;1.80;99.90;;;;;;10090289;29;20273;-80
2023/12/07 22:42:40;;;;;;;159.30;78.97;;;1.50;99.90;;;;;;10091344;29;20256;-80
2023/12/07 22:47:43;;;;;;;167.50;80.23;;;1.10;99.90;;;;;;10089965;29;20269;-80
2023/12/07 22:52:45;;;;;;;150.87;73.93;;;1.00;99.90;;;;;;10091389;29;20236;-80
2023/12/07 22:57:48;;;;;;;155.80;74.93;;;1.10;99.90;;;;;;10089308;29;20308;-80
2023/12/07 23:02:51;;;;;;;177.07;84.10;;;1.00;99.90;;;;;;10083256;29;20296;-80
2023/12/07 23:07:53;;;;;;;130.10;63.83;;;1.00;99.90;;;;;;10085061;29;20236;-80
2023/12/07 23:12:56;;;;;;;182.17;82.70;;;1.10;99.90;;;;;;10078615;29;20296;-80
2023/12/07 23:17:58;;;;;;;137.27;67.67;;;1.00;99.90;;;;;;10082144;29;20244;-80
2023/12/07 23:23:01;;;;;;;167.13;81.03;;;1.20;99.90;;;;;;10089775;29;20324;-80
2023/12/07 23:28:04;;;;;;;175.67;83.83;;;1.60;99.90;;;;;;10090227;29;20273;-80
2023/12/07 23:33:06;;;;;;;140.93;70.80;;;1.80;99.90;;;;;;10088987;29;20765;-80
2023/12/07 23:38:11;;;;;;;179.63;85.23;;;2.10;99.90;;;;;;10090555;29;20240;-80
2023/12/07 23:43:14;;;;;;;166.93;79.37;;;2.30;99.90;;;;;;10067417;29;20258;-80
2023/12/07 23:48:16;;;;;;;184.23;86.63;;;2.50;99.90;;;;;;10051815;29;20244;-80
2023/12/07 23:53:20;;;;;;;183.23;86.07;;;2.70;99.90;;;;;;10058744;29;20289;-80
2023/12/07 23:58:22;;;;;;;155.13;74.30;;;2.30;99.90;;;;;;10089135;29;20774;-80
